Main page
METAR-TAF:

METAR-TAF

Airports :

Leeds Bradford Airport

Leeds, England

latitude: 53-52N, longitude: 001-39W, elevation: 208 m

Current weather observation

The report was made 31 minutes ago, at 07:20 UTC
Wind 10 kt from the Southwest, varying between South and West
Temperature 13°C
Humidity 82%
Pressure 999 hPa
Visibility 10 km or more
Few clouds at a height of 1200 ft

METAR: EGNM 180720Z 22010KT 190V260 9999 FEW012 13/10 Q0999

Time: 08:51 (07:51 UTC)

Forecast

The report was made 2 hours and 51 minutes ago, at 05:00 UTC
Forecast valid from 18 at 06 UTC to 19 at 06 UTC
Wind 12 kt from the Southwest
Visibility 10 km or more
Few clouds at a height of 1500 ft
Temporary
from 18 at 10 UTC to 18 at 20 UTC
Wind 18 kt from the Southwest with gusts up to 28 kt
Visibility: 8000 m
rain showers

TAF: EGNM 180500Z 1806/1906 22012KT 9999 FEW015 TEMPO 1810/1820 23018G28KT 8000 SHRA

Weather observations and forecasts of more than 4000 airports (METAR and TAF reports).

The available stations are represented by yellow and red dots on the map.

Hover mouse over dot to see the name of the station.

Then click to see weather observations and forecasts.

To change the map : click on the green buttons with a black cross to zoom in, on the green button with a dash to zoom out, or on the green arrows for adjacent maps.


METAR-TAF: